Waianae, Hawaii
Current Conditions -  °F | °C
As of 4:58 PM on Friday 28 Nov 2014 (Local Time) from PHHI Reporting Station
Scattered Clouds Scattered Clouds  
Wind Chill: 73°   Ceiling: Unl
Heat Index: 73°   Visibility: 10mi
Dew Point: 62°   Wind: 7mph
Humidity: 70%   Direction: 80°E
Pressure: 30.02"   Gusts: NA
Location:  21.45°N, 158.19°W
Report Text: PHHI 290258Z AUTO 08006KT 10SM SCT024 23/17 A3002 RMK AO2 SLP157 T02260168 53003 $
Loading
Personal Weather Stations






























Interactive Weather Map New forecast layout! Learn more

10-Day Weather Forecast

Advertisements
Track Severe Weather on mobile